Time;durP1;ratioP1;P1;durP2;ratioP2;P2;SDS_P1;SDS_P2;PMS_P1;PMS_P2;Temp;Humidity;BMP_temperature;BMP_pressure;BME280_temperature;BME280_humidity;BME280_pressure;Samples;Min_cycle;Max_cycle;Signal;HPM_P1;HPM_P2
2024/03/23 00:00:13;;;;;;;;;;;;;;;7.58;51.90;94660.75;4176085;28;19936;-66
2024/03/23 00:02:14;;;;;;;;;;;;;;;7.58;51.63;94658.13;4173425;28;19924;-67
2024/03/23 00:04:15;;;;;;;;;;;;;;;7.62;51.55;94655.25;4175256;28;19920;-67
2024/03/23 00:06:18;;;;;;;;;;;;;;;7.72;51.98;94658.63;4177190;28;19921;-68
2024/03/23 00:08:19;;;;;;;;;;;;;;;7.78;51.01;94656.28;4171695;28;20399;-67
2024/03/23 00:10:21;;;;;;;;;;;;;;;7.84;50.58;94654.91;4175659;28;19940;-66
2024/03/23 00:12:22;;;;;;;;;;;;;;;7.94;50.37;94660.09;4170290;28;19920;-65
2024/03/23 00:14:23;;;;;;;;;;;;;;;7.92;49.98;94657.59;4174010;28;19954;-66
2024/03/23 00:16:26;;;;;;;;;;;;;;;7.93;50.61;94653.22;4164600;28;19921;-66
2024/03/23 00:18:45;;;;;;;;;;;;;;;7.96;50.16;94658.16;4163128;28;20556;-67
2024/03/23 00:20:47;;;;;;;;;;;;;;;7.96;50.15;94656.34;4164075;28;19928;-65
2024/03/23 00:22:48;;;;;;;;;;;;;;;7.97;50.69;94649.34;4162353;28;19928;-65
2024/03/23 00:24:49;;;;;;;;;;;;;;;7.99;50.61;94648.22;4163857;28;19936;-66
2024/03/23 00:26:51;;;;;;;;;;;;;;;8.00;49.63;94649.03;4161823;28;20483;-67
2024/03/23 00:28:52;;;;;;;;;;;;;;;8.00;50.46;94649.91;4171856;28;19929;-67
2024/03/23 00:30:53;;;;;;;;;;;;;;;7.97;50.92;94650.16;4193015;28;19931;-68
2024/03/23 00:32:54;;;;;;;;;;;;;;;7.95;50.66;94659.91;4168728;28;19967;-69
2024/03/23 00:34:55;;;;;;;;;;;;;;;7.93;50.23;94646.19;4174865;28;19921;-68
2024/03/23 00:36:57;;;;;;;;;;;;;;;7.92;50.87;94648.97;4169380;28;20379;-65
2024/03/23 00:38:58;;;;;;;;;;;;;;;7.89;51.24;94646.63;4169959;28;19925;-68
2024/03/23 00:40:59;;;;;;;;;;;;;;;7.92;50.66;94651.56;4171964;28;19925;-68
2024/03/23 00:43:00;;;;;;;;;;;;;;;7.86;51.10;94641.72;4167781;28;19940;-68
2024/03/23 00:45:01;;;;;;;;;;;;;;;7.81;51.26;94644.75;4172796;28;19925;-67
2024/03/23 00:47:02;;;;;;;;;;;;;;;7.78;51.34;94650.25;4172051;28;19928;-68
2024/03/23 00:49:03;;;;;;;;;;;;;;;7.77;51.26;94649.44;4168858;28;19970;-67
2024/03/23 00:51:04;;;;;;;;;;;;;;;7.75;51.60;94651.34;4163250;28;19996;-68
2024/03/23 00:53:05;;;;;;;;;;;;;;;7.77;51.58;94649.44;4169868;28;19921;-67
2024/03/23 00:55:07;;;;;;;;;;;;;;;7.79;51.26;94647.50;4173627;28;19945;-70
2024/03/23 00:57:08;;;;;;;;;;;;;;;7.79;51.63;94642.28;4176061;28;19971;-67
2024/03/23 00:59:08;;;;;;;;;;;;;;;7.78;51.40;94639.81;4175661;28;19929;-67
2024/03/23 01:01:09;;;;;;;;;;;;;;;7.66;51.44;94641.78;4166712;28;20020;-67
2024/03/23 01:03:10;;;;;;;;;;;;;;;7.61;51.17;94633.56;4143707;28;20353;-66
2024/03/23 01:05:10;;;;;;;;;;;;;;;7.59;51.22;94638.94;4170170;28;19921;-68
2024/03/23 01:07:11;;;;;;;;;;;;;;;7.57;51.27;94635.66;4173403;28;20006;-66
2024/03/23 01:09:12;;;;;;;;;;;;;;;7.60;51.25;94634.53;4169964;28;19928;-67
2024/03/23 01:11:14;;;;;;;;;;;;;;;7.62;51.37;94629.19;4173601;28;20379;-67
2024/03/23 01:13:15;;;;;;;;;;;;;;;7.62;50.92;94631.78;4169536;28;19921;-65
2024/03/23 01:15:15;;;;;;;;;;;;;;;7.62;50.39;94629.19;4168581;28;19925;-67
2024/03/23 01:17:16;;;;;;;;;;;;;;;7.65;50.79;94629.69;4189305;28;19943;-65
2024/03/23 01:19:17;;;;;;;;;;;;;;;7.63;50.21;94629.03;4151879;28;19925;-69
2024/03/23 01:21:18;;;;;;;;;;;;;;;7.57;50.02;94626.97;4169374;28;19921;-67
2024/03/23 01:23:18;;;;;;;;;;;;;;;7.53;50.39;94628.25;4171336;28;19924;-69
2024/03/23 01:25:20;;;;;;;;;;;;;;;7.41;51.39;94629.38;4176305;28;20000;-67
2024/03/23 01:27:21;;;;;;;;;;;;;;;7.38;51.91;94635.69;4164746;28;19972;-65
2024/03/23 01:29:23;;;;;;;;;;;;;;;7.32;51.79;94637.06;4171120;28;20466;-67
2024/03/23 01:31:24;;;;;;;;;;;;;;;7.18;51.31;94630.53;4176528;28;20436;-67
2024/03/23 01:33:26;;;;;;;;;;;;;;;7.07;51.65;94632.47;4175370;28;19928;-66
2024/03/23 01:35:26;;;;;;;;;;;;;;;6.81;51.58;94638.22;4166956;28;20319;-67
2024/03/23 01:37:27;;;;;;;;;;;;;;;6.25;51.86;94639.69;4169825;28;19925;-67
2024/03/23 01:39:28;;;;;;;;;;;;;;;5.63;54.01;94640.69;4174438;28;19920;-65
2024/03/23 01:41:28;;;;;;;;;;;;;;;5.50;53.90;94640.91;4174669;28;19929;-66
2024/03/23 01:43:29;;;;;;;;;;;;;;;5.38;53.95;94636.75;4165043;28;19948;-66
2024/03/23 01:45:30;;;;;;;;;;;;;;;5.52;53.88;94636.41;4149952;28;19925;-68
2024/03/23 01:47:30;;;;;;;;;;;;;;;5.63;54.12;94632.91;4175784;28;20413;-66
2024/03/23 01:49:31;;;;;;;;;;;;;;;5.77;53.54;94642.13;4174899;28;19921;-67
2024/03/23 01:51:31;;;;;;;;;;;;;;;5.88;53.23;94634.22;4166700;28;20363;-68
2024/03/23 01:53:32;;;;;;;;;;;;;;;5.93;52.84;94639.84;4166874;28;19982;-67
2024/03/23 01:55:33;;;;;;;;;;;;;;;5.90;53.13;94634.94;4167318;28;19968;-66
2024/03/23 01:57:35;;;;;;;;;;;;;;;5.98;52.69;94637.72;4173868;28;20573;-68
2024/03/23 01:59:36;;;;;;;;;;;;;;;6.11;52.88;94638.31;4177808;28;19928;-67
2024/03/23 02:01:36;;;;;;;;;;;;;;;5.88;53.02;94635.06;4171228;28;19925;-68
2024/03/23 02:03:37;;;;;;;;;;;;;;;5.66;55.16;94638.66;4173489;28;19925;-67
2024/03/23 02:05:38;;;;;;;;;;;;;;;5.74;54.46;94635.41;4171286;28;19929;-66
2024/03/23 02:07:42;;;;;;;;;;;;;;;5.91;54.62;94636.56;4172158;28;19972;-67
2024/03/23 02:09:43;;;;;;;;;;;;;;;5.90;54.91;94637.53;4176641;28;19920;-68
2024/03/23 02:11:44;;;;;;;;;;;;;;;5.64;55.96;94637.16;4177099;28;20414;-67
2024/03/23 02:13:45;;;;;;;;;;;;;;;4.91;58.33;94637.16;4166820;28;19959;-66
2024/03/23 02:15:45;;;;;;;;;;;;;;;4.58;59.62;94641.56;4178596;28;20059;-67
2024/03/23 02:17:46;;;;;;;;;;;;;;;4.50;59.76;94641.34;4171483;28;19928;-67
2024/03/23 02:19:47;;;;;;;;;;;;;;;4.59;59.43;94640.59;4170796;28;20397;-67
2024/03/23 02:21:47;;;;;;;;;;;;;;;4.42;59.68;94641.97;4170233;28;20402;-67
2024/03/23 02:23:48;;;;;;;;;;;;;;;4.57;59.93;94646.88;4173409;28;19921;-68
2024/03/23 02:25:48;;;;;;;;;;;;;;;4.53;60.08;94646.28;4166986;28;19935;-66
2024/03/23 02:27:49;;;;;;;;;;;;;;;4.68;60.63;94649.41;4175160;28;19990;-67
2024/03/23 02:29:50;;;;;;;;;;;;;;;4.77;59.33;94643.47;4172641;28;19920;-68
2024/03/23 02:31:50;;;;;;;;;;;;;;;4.93;59.34;94645.66;4178546;28;19999;-66
2024/03/23 02:33:51;;;;;;;;;;;;;;;5.00;59.00;94640.78;4175374;28;19993;-64
2024/03/23 02:35:55;;;;;;;;;;;;;;;5.05;58.67;94639.44;4167860;28;20333;-67
2024/03/23 02:37:57;;;;;;;;;;;;;;;5.12;58.73;94642.38;4169622;28;20708;-66
2024/03/23 02:39:58;;;;;;;;;;;;;;;5.26;58.33;94638.59;4170489;28;20350;-66
2024/03/23 02:41:58;;;;;;;;;;;;;;;5.37;58.02;94640.31;4169802;28;19921;-67
2024/03/23 02:43:59;;;;;;;;;;;;;;;5.45;58.07;94641.31;4171647;28;19920;-66
2024/03/23 02:46:00;;;;;;;;;;;;;;;5.49;57.46;94640.09;4154690;28;20317;-65
2024/03/23 02:48:03;;;;;;;;;;;;;;;5.26;57.76;94636.81;4163568;28;19921;-66
2024/03/23 02:50:04;;;;;;;;;;;;;;;4.83;59.01;94639.56;4167819;28;19929;-65
2024/03/23 02:52:05;;;;;;;;;;;;;;;4.75;59.27;94629.78;4162987;28;20467;-67
2024/03/23 02:54:06;;;;;;;;;;;;;;;4.80;59.54;94630.25;4147994;28;19921;-67
2024/03/23 02:56:07;;;;;;;;;;;;;;;4.86;59.86;94631.50;4176144;28;19942;-67
2024/03/23 02:58:07;;;;;;;;;;;;;;;4.88;59.62;94634.81;4168689;28;20403;-68
2024/03/23 03:00:09;;;;;;;;;;;;;;;4.99;59.46;94633.91;4175080;28;19921;-68
2024/03/23 03:02:09;;;;;;;;;;;;;;;4.98;59.30;94633.09;4155248;28;19921;-67
2024/03/23 03:04:10;;;;;;;;;;;;;;;5.14;58.59;94632.63;4170636;28;19935;-67
2024/03/23 03:06:11;;;;;;;;;;;;;;;5.18;58.15;94633.22;4173438;28;20283;-66
2024/03/23 03:08:11;;;;;;;;;;;;;;;5.26;57.88;94631.63;4173952;28;20368;-67
2024/03/23 03:10:12;;;;;;;;;;;;;;;5.20;58.34;94626.13;4170394;28;19920;-66
2024/03/23 03:12:12;;;;;;;;;;;;;;;5.23;58.13;94629.31;4175374;28;20014;-65
2024/03/23 03:14:13;;;;;;;;;;;;;;;5.30;58.35;94635.63;4173143;28;19924;-67
2024/03/23 03:16:14;;;;;;;;;;;;;;;5.23;58.20;94633.69;4172332;28;20322;-66
2024/03/23 03:18:14;;;;;;;;;;;;;;;5.22;58.65;94635.44;4169785;28;20004;-66
2024/03/23 03:20:17;;;;;;;;;;;;;;;5.28;58.54;94631.50;4175347;28;19975;-66
2024/03/23 03:22:18;;;;;;;;;;;;;;;5.24;57.94;94638.72;4173458;28;19924;-66
2024/03/23 03:24:18;;;;;;;;;;;;;;;5.07;58.64;94634.94;4173711;28;20383;-66
2024/03/23 03:26:19;;;;;;;;;;;;;;;5.13;58.94;94636.19;4168528;28;20328;-66
2024/03/23 03:28:19;;;;;;;;;;;;;;;5.01;58.97;94642.41;4161300;28;19955;-67
2024/03/23 03:30:20;;;;;;;;;;;;;;;5.03;59.19;94637.91;4162564;28;19928;-68
2024/03/23 03:32:21;;;;;;;;;;;;;;;5.08;59.39;94638.38;4164743;28;19921;-66
2024/03/23 03:34:22;;;;;;;;;;;;;;;5.20;58.42;94642.53;4175979;28;19924;-68
2024/03/23 03:36:22;;;;;;;;;;;;;;;5.29;58.08;94636.59;4174176;28;19924;-66
2024/03/23 03:38:23;;;;;;;;;;;;;;;5.36;57.69;94639.50;4172795;28;19921;-65
2024/03/23 03:40:25;;;;;;;;;;;;;;;5.37;57.61;94642.91;4176882;28;19920;-65
2024/03/23 03:42:25;;;;;;;;;;;;;;;5.32;57.93;94641.50;4155707;28;19922;-66
2024/03/23 03:44:26;;;;;;;;;;;;;;;5.28;57.60;94636.69;4171923;28;20303;-65
2024/03/23 03:46:30;;;;;;;;;;;;;;;5.29;58.03;94635.75;4160512;28;20154;-66
2024/03/23 03:48:31;;;;;;;;;;;;;;;5.37;57.70;94640.31;4164613;28;19972;-65
2024/03/23 03:50:32;;;;;;;;;;;;;;;5.46;57.62;94639.53;4163292;28;19925;-67
2024/03/23 03:52:33;;;;;;;;;;;;;;;5.53;57.63;94638.06;4171559;28;19952;-66
2024/03/23 03:54:33;;;;;;;;;;;;;;;5.58;57.93;94635.91;4159693;28;19999;-67
2024/03/23 03:56:34;;;;;;;;;;;;;;;5.47;56.82;94641.19;4175553;28;19948;-67
2024/03/23 03:58:35;;;;;;;;;;;;;;;5.38;57.50;94637.59;4164693;28;19928;-67
2024/03/23 04:00:35;;;;;;;;;;;;;;;5.04;58.30;94637.78;4174273;28;19920;-65
2024/03/23 04:02:36;;;;;;;;;;;;;;;4.97;58.56;94641.00;4155329;28;19928;-66
2024/03/23 04:04:37;;;;;;;;;;;;;;;5.03;58.92;94640.50;4171446;28;19978;-64
2024/03/23 04:06:38;;;;;;;;;;;;;;;5.18;58.96;94641.00;4176122;28;20346;-65
2024/03/23 04:08:39;;;;;;;;;;;;;;;5.23;58.31;94644.06;4172516;28;19925;-66
2024/03/23 04:10:42;;;;;;;;;;;;;;;5.32;58.33;94638.91;4161106;28;19921;-65
2024/03/23 04:12:43;;;;;;;;;;;;;;;5.33;57.64;94643.16;4165311;28;19928;-64
2024/03/23 04:14:43;;;;;;;;;;;;;;;5.33;57.90;94647.53;4172238;28;19920;-66
2024/03/23 04:16:44;;;;;;;;;;;;;;;5.30;57.90;94651.19;4169828;28;19931;-66
2024/03/23 04:18:47;;;;;;;;;;;;;;;5.26;58.02;94646.41;4171273;28;19925;-66
2024/03/23 04:20:51;;;;;;;;;;;;;;;5.24;58.03;94648.28;4170560;28;20350;-65
2024/03/23 04:22:53;;;;;;;;;;;;;;;5.23;58.36;94650.06;4164412;28;19982;-66
2024/03/23 04:24:54;;;;;;;;;;;;;;;4.75;58.56;94647.13;4166574;28;19928;-67
2024/03/23 04:26:55;;;;;;;;;;;;;;;4.58;59.76;94653.69;4174167;28;19968;-66
2024/03/23 04:28:56;;;;;;;;;;;;;;;4.37;60.28;94649.28;4168929;28;19932;-65
2024/03/23 04:30:57;;;;;;;;;;;;;;;4.45;60.47;94656.44;4170664;28;19970;-67
2024/03/23 04:32:58;;;;;;;;;;;;;;;4.56;60.31;94647.78;4168610;28;20923;-65
2024/03/23 04:35:00;;;;;;;;;;;;;;;4.58;60.24;94651.09;4172306;28;19921;-69
2024/03/23 04:37:00;;;;;;;;;;;;;;;4.71;60.00;94646.56;4160477;28;20336;-65
2024/03/23 04:39:01;;;;;;;;;;;;;;;4.81;59.35;94647.47;4173672;28;20384;-65
2024/03/23 04:41:02;;;;;;;;;;;;;;;4.93;59.21;94646.47;4174698;28;19920;-65
2024/03/23 04:43:04;;;;;;;;;;;;;;;5.05;58.79;94649.81;4161472;28;19971;-64
2024/03/23 04:45:06;;;;;;;;;;;;;;;5.19;57.87;94651.28;4169449;28;19943;-67
2024/03/23 04:47:07;;;;;;;;;;;;;;;5.33;58.05;94655.31;4170234;28;19932;-64
2024/03/23 04:49:07;;;;;;;;;;;;;;;5.43;57.64;94655.38;4177050;28;19928;-65
2024/03/23 04:51:08;;;;;;;;;;;;;;;5.57;57.74;94662.00;4173424;28;19924;-66
2024/03/23 04:53:08;;;;;;;;;;;;;;;5.70;57.55;94663.44;4173478;28;19922;-65
2024/03/23 04:55:09;;;;;;;;;;;;;;;5.82;56.76;94658.16;4169008;28;19939;-64
2024/03/23 04:57:10;;;;;;;;;;;;;;;5.91;56.82;94662.56;4171671;28;20748;-65
2024/03/23 04:59:12;;;;;;;;;;;;;;;5.97;56.71;94663.84;4172398;28;19921;-66
2024/03/23 05:01:12;;;;;;;;;;;;;;;6.05;56.42;94664.03;4172630;28;19975;-66
2024/03/23 05:03:13;;;;;;;;;;;;;;;6.13;56.28;94658.97;4174950;28;19972;-67
2024/03/23 05:05:14;;;;;;;;;;;;;;;6.25;56.03;94664.88;4178451;28;20339;-68
2024/03/23 05:07:14;;;;;;;;;;;;;;;6.27;55.88;94657.78;4160583;28;20032;-64
2024/03/23 05:09:15;;;;;;;;;;;;;;;6.30;55.55;94658.34;4147682;28;19936;-66
2024/03/23 05:11:16;;;;;;;;;;;;;;;6.39;55.31;94656.72;4164778;28;19921;-68
2024/03/23 05:13:16;;;;;;;;;;;;;;;6.44;55.23;94657.13;4167456;28;19921;-71
2024/03/23 05:15:17;;;;;;;;;;;;;;;6.46;54.80;94657.81;4170096;28;19932;-69
2024/03/23 05:17:19;;;;;;;;;;;;;;;6.47;55.50;94658.63;4176092;28;20011;-66
2024/03/23 05:19:19;;;;;;;;;;;;;;;6.51;55.57;94653.00;4169911;28;20351;-66
2024/03/23 05:21:20;;;;;;;;;;;;;;;6.58;55.41;94655.88;4172838;28;19928;-67
2024/03/23 05:23:21;;;;;;;;;;;;;;;6.64;55.19;94649.31;4171621;28;19929;-68
2024/03/23 05:25:22;;;;;;;;;;;;;;;6.68;55.34;94650.69;4167418;28;20003;-65
2024/03/23 05:27:22;;;;;;;;;;;;;;;6.70;55.22;94644.41;4166285;28;19927;-68
2024/03/23 05:29:23;;;;;;;;;;;;;;;6.76;55.05;94653.44;4175947;28;20289;-67
2024/03/23 05:31:24;;;;;;;;;;;;;;;6.85;54.98;94647.41;4175264;28;20012;-67
2024/03/23 05:33:25;;;;;;;;;;;;;;;6.91;54.83;94652.06;4159998;28;19959;-66
2024/03/23 05:35:26;;;;;;;;;;;;;;;7.00;54.29;94654.81;4179841;28;20371;-66
2024/03/23 05:37:26;;;;;;;;;;;;;;;6.86;53.83;94649.06;4178234;28;19925;-67
2024/03/23 05:39:27;;;;;;;;;;;;;;;6.81;54.56;94653.84;4178277;28;20014;-65
2024/03/23 05:41:28;;;;;;;;;;;;;;;6.82;54.25;94654.66;4170583;28;19972;-68
2024/03/23 05:43:29;;;;;;;;;;;;;;;6.79;54.49;94647.97;4175442;28;19928;-69
2024/03/23 05:45:29;;;;;;;;;;;;;;;6.84;54.13;94652.75;4173109;28;20095;-67
2024/03/23 05:47:30;;;;;;;;;;;;;;;6.95;54.39;94653.44;4178806;28;19924;-68
2024/03/23 05:49:30;;;;;;;;;;;;;;;7.06;54.30;94655.09;4178480;28;19970;-67
2024/03/23 05:51:31;;;;;;;;;;;;;;;7.11;53.93;94659.88;4171236;28;19921;-68
2024/03/23 05:53:34;;;;;;;;;;;;;;;7.17;53.66;94649.72;4172196;28;19925;-66
2024/03/23 05:55:34;;;;;;;;;;;;;;;7.24;53.14;94644.75;4175119;28;19921;-68
2024/03/23 05:57:35;;;;;;;;;;;;;;;7.37;53.37;94647.06;4166215;28;19971;-66
2024/03/23 05:59:36;;;;;;;;;;;;;;;7.43;52.62;94650.91;4168804;28;19921;-68
2024/03/23 06:01:37;;;;;;;;;;;;;;;7.45;52.74;94655.03;4174270;28;19952;-66
2024/03/23 06:03:38;;;;;;;;;;;;;;;7.52;52.89;94645.66;4176574;28;19921;-68
2024/03/23 06:05:38;;;;;;;;;;;;;;;7.55;52.10;94645.41;4167959;28;19983;-67
2024/03/23 06:07:39;;;;;;;;;;;;;;;7.25;52.23;94645.59;4161753;28;19953;-67
2024/03/23 06:09:40;;;;;;;;;;;;;;;7.02;53.64;94647.69;4176871;28;19921;-68
2024/03/23 06:11:40;;;;;;;;;;;;;;;7.10;53.69;94651.25;4174233;28;20350;-69
2024/03/23 06:13:41;;;;;;;;;;;;;;;7.20;53.27;94646.00;4178555;28;20452;-67
2024/03/23 06:15:42;;;;;;;;;;;;;;;7.37;52.78;94642.69;4176534;28;19950;-67
2024/03/23 06:17:43;;;;;;;;;;;;;;;7.56;52.42;94641.00;4175346;28;20453;-68
2024/03/23 06:19:44;;;;;;;;;;;;;;;7.77;52.41;94648.63;4150255;28;19925;-67
2024/03/23 06:21:45;;;;;;;;;;;;;;;7.89;51.80;94646.63;4172862;28;20316;-66
2024/03/23 06:23:51;;;;;;;;;;;;;;;8.01;51.49;94637.66;4174828;28;19921;-65
2024/03/23 06:25:53;;;;;;;;;;;;;;;8.10;51.48;94635.97;4146213;28;19921;-67
2024/03/23 06:27:53;;;;;;;;;;;;;;;8.21;50.70;94640.97;4170192;28;19996;-68
2024/03/23 06:29:54;;;;;;;;;;;;;;;8.27;50.29;94642.19;4173612;28;20557;-66
2024/03/23 06:31:55;;;;;;;;;;;;;;;8.36;50.50;94634.28;4169536;28;19925;-69
2024/03/23 06:33:55;;;;;;;;;;;;;;;8.35;49.75;94640.50;4169338;28;19921;-67
2024/03/23 06:35:57;;;;;;;;;;;;;;;8.35;50.08;94635.28;4172471;28;20367;-67
2024/03/23 06:37:58;;;;;;;;;;;;;;;8.39;49.79;94633.22;4155374;28;20406;-68
2024/03/23 06:39:58;;;;;;;;;;;;;;;8.46;49.96;94631.66;4164864;28;19921;-66
2024/03/23 06:41:59;;;;;;;;;;;;;;;8.59;50.24;94634.72;4166312;28;19936;-65
2024/03/23 06:44:00;;;;;;;;;;;;;;;8.69;49.76;94639.91;4177971;28;19921;-67
2024/03/23 06:46:02;;;;;;;;;;;;;;;8.71;49.65;94637.13;4175890;28;19932;-68
2024/03/23 06:48:03;;;;;;;;;;;;;;;8.63;49.32;94639.69;4175039;28;19920;-67
2024/03/23 06:50:04;;;;;;;;;;;;;;;8.64;49.26;94636.09;4175185;28;19943;-69
2024/03/23 06:52:05;;;;;;;;;;;;;;;8.68;49.12;94635.63;4164910;28;19921;-66
2024/03/23 06:54:05;;;;;;;;;;;;;;;8.77;48.79;94636.53;4166691;28;20427;-68
2024/03/23 06:56:06;;;;;;;;;;;;;;;8.80;48.86;94633.63;4173670;28;19939;-68
2024/03/23 06:58:07;;;;;;;;;;;;;;;8.91;49.11;94636.00;4173376;28;19958;-69
2024/03/23 07:00:09;;;;;;;;;;;;;;;8.85;48.35;94636.59;4170257;28;19925;-68
2024/03/23 07:02:10;;;;;;;;;;;;;;;8.77;48.23;94639.13;4175448;28;20383;-68
2024/03/23 07:04:11;;;;;;;;;;;;;;;8.78;48.79;94632.97;4168799;28;20469;-66
2024/03/23 07:06:11;;;;;;;;;;;;;;;8.82;48.33;94627.28;4171440;28;19925;-68
2024/03/23 07:08:12;;;;;;;;;;;;;;;8.98;48.97;94628.38;4177534;28;19925;-67
2024/03/23 07:10:12;;;;;;;;;;;;;;;9.15;48.43;94627.53;4177941;28;19924;-67
2024/03/23 07:12:13;;;;;;;;;;;;;;;9.05;47.20;94629.41;4173654;28;19970;-68
2024/03/23 07:14:15;;;;;;;;;;;;;;;8.88;48.42;94623.22;4177921;28;20319;-68
2024/03/23 07:16:16;;;;;;;;;;;;;;;8.80;48.27;94623.19;4171597;28;19929;-68
2024/03/23 07:18:16;;;;;;;;;;;;;;;8.67;48.44;94622.72;4169275;28;20508;-68
2024/03/23 07:20:17;;;;;;;;;;;;;;;8.73;48.97;94622.13;4176088;28;19963;-67
2024/03/23 07:22:17;;;;;;;;;;;;;;;8.99;48.79;94619.56;4163974;28;19921;-68
2024/03/23 07:24:18;;;;;;;;;;;;;;;9.20;48.00;94617.44;4164311;28;19964;-68
2024/03/23 07:26:18;;;;;;;;;;;;;;;9.11;47.57;94614.94;4166960;28;19970;-68
2024/03/23 07:28:19;;;;;;;;;;;;;;;8.93;47.33;94610.56;4168500;28;19925;-70
2024/03/23 07:30:20;;;;;;;;;;;;;;;9.04;47.35;94606.06;4155208;28;19921;-71
2024/03/23 07:32:20;;;;;;;;;;;;;;;9.22;47.16;94615.50;4177869;28;20015;-68
2024/03/23 07:34:21;;;;;;;;;;;;;;;9.38;47.29;94609.56;4175557;28;19927;-69
2024/03/23 07:36:21;;;;;;;;;;;;;;;9.20;46.83;94601.75;4166249;28;19982;-67
2024/03/23 07:38:23;;;;;;;;;;;;;;;9.10;47.49;94610.66;4166988;28;19921;-69
2024/03/23 07:40:23;;;;;;;;;;;;;;;9.27;47.10;94612.44;4172158;28;19921;-67
2024/03/23 07:42:26;;;;;;;;;;;;;;;9.49;46.60;94605.88;4174542;28;19979;-67
2024/03/23 07:44:27;;;;;;;;;;;;;;;9.67;45.98;94608.41;4167241;28;19931;-68
2024/03/23 07:46:27;;;;;;;;;;;;;;;9.83;45.47;94603.28;4168238;28;19921;-67
2024/03/23 07:48:28;;;;;;;;;;;;;;;9.96;45.25;94602.00;4174022;28;20452;-67
2024/03/23 07:50:28;;;;;;;;;;;;;;;9.53;45.72;94594.13;4166647;28;19925;-69
2024/03/23 07:52:29;;;;;;;;;;;;;;;9.12;47.18;94601.72;4176010;28;19959;-69
2024/03/23 07:54:30;;;;;;;;;;;;;;;8.74;47.01;94597.66;4175326;28;19967;-68
2024/03/23 07:56:34;;;;;;;;;;;;;;;8.95;47.91;94600.78;4177132;28;19924;-68
2024/03/23 07:58:36;;;;;;;;;;;;;;;9.22;47.03;94605.03;4169970;28;19924;-69
2024/03/23 08:00:37;;;;;;;;;;;;;;;9.57;45.79;94597.25;4170317;28;19921;-68
2024/03/23 08:02:38;;;;;;;;;;;;;;;9.55;45.63;94596.56;4172182;28;19924;-70
2024/03/23 08:04:39;;;;;;;;;;;;;;;9.46;45.73;94602.75;4168090;28;19924;-69
2024/03/23 08:06:39;;;;;;;;;;;;;;;9.53;45.96;94601.13;4176912;28;19921;-70
2024/03/23 08:08:41;;;;;;;;;;;;;;;9.42;46.83;94595.22;4174583;28;19920;-67
2024/03/23 08:10:50;;;;;;;;;;;;;;;9.54;46.12;94590.53;4166580;28;19925;-69
2024/03/23 08:12:51;;;;;;;;;;;;;;;9.61;46.14;94596.81;4171670;28;19983;-72
2024/03/23 08:14:52;;;;;;;;;;;;;;;9.90;45.68;94595.63;4173711;28;19928;-69
2024/03/23 08:16:54;;;;;;;;;;;;;;;10.23;45.22;94591.31;4138961;28;19952;-69
2024/03/23 08:18:57;;;;;;;;;;;;;;;10.32;44.23;94591.34;4156799;28;20016;-70
2024/03/23 08:21:04;;;;;;;;;;;;;;;10.08;44.75;94592.91;4173324;28;19924;-68
2024/03/23 08:23:05;;;;;;;;;;;;;;;10.12;44.49;94583.75;4171544;28;19928;-68
2024/03/23 08:25:06;;;;;;;;;;;;;;;10.28;44.47;94584.78;4167234;28;19928;-70
2024/03/23 08:27:07;;;;;;;;;;;;;;;10.22;44.83;94581.81;4170881;28;19921;-67
2024/03/23 08:29:08;;;;;;;;;;;;;;;10.00;44.95;94587.63;4173511;28;20004;-67
2024/03/23 08:31:10;;;;;;;;;;;;;;;10.02;44.68;94585.66;4172630;28;20374;-68
2024/03/23 08:33:10;;;;;;;;;;;;;;;10.22;44.82;94575.78;4173188;28;19929;-70
2024/03/23 08:35:11;;;;;;;;;;;;;;;10.62;44.40;94582.09;4170016;28;19921;-71
2024/03/23 08:37:11;;;;;;;;;;;;;;;11.02;43.92;94570.81;4166029;28;19921;-69
2024/03/23 08:39:12;;;;;;;;;;;;;;;11.33;42.80;94570.09;4165294;28;20059;-68
2024/03/23 08:41:13;;;;;;;;;;;;;;;11.34;42.31;94566.50;4165705;28;20564;-70
2024/03/23 08:43:13;;;;;;;;;;;;;;;11.21;42.36;94560.97;4177070;28;19924;-69
2024/03/23 08:45:14;;;;;;;;;;;;;;;11.39;42.56;94556.31;4177267;28;19975;-70
2024/03/23 08:47:15;;;;;;;;;;;;;;;11.30;42.29;94562.56;4177368;28;19921;-69
2024/03/23 08:49:16;;;;;;;;;;;;;;;11.13;41.91;94555.72;4169888;28;19929;-68
2024/03/23 08:51:16;;;;;;;;;;;;;;;11.13;42.47;94558.34;4166769;28;19978;-69
2024/03/23 08:53:17;;;;;;;;;;;;;;;11.28;42.17;94552.25;4168792;28;19943;-68
2024/03/23 08:55:17;;;;;;;;;;;;;;;11.56;42.27;94551.03;4168578;28;20693;-69
2024/03/23 08:57:18;;;;;;;;;;;;;;;11.60;41.70;94545.28;4169870;28;19924;-68
2024/03/23 08:59:20;;;;;;;;;;;;;;;11.58;41.69;94546.44;4166666;28;19931;-68
2024/03/23 09:01:20;;;;;;;;;;;;;;;11.39;42.04;94540.59;4165130;28;20281;-68
2024/03/23 09:03:21;;;;;;;;;;;;;;;11.60;41.97;94541.84;4170268;28;19967;-68
2024/03/23 09:05:22;;;;;;;;;;;;;;;11.68;41.28;94539.22;4168691;28;20430;-66
2024/03/23 09:07:22;;;;;;;;;;;;;;;11.48;41.52;94531.69;4168134;28;19928;-71
2024/03/23 09:09:23;;;;;;;;;;;;;;;11.54;42.04;94532.03;4175639;28;19921;-68
2024/03/23 09:11:23;;;;;;;;;;;;;;;11.87;41.78;94525.69;4167419;28;20023;-68
2024/03/23 09:13:24;;;;;;;;;;;;;;;12.23;41.45;94519.91;4173193;28;19951;-70
2024/03/23 09:15:24;;;;;;;;;;;;;;;12.40;40.63;94525.91;4157458;28;19921;-68
2024/03/23 09:17:25;;;;;;;;;;;;;;;12.68;40.96;94518.28;4174603;28;19921;-68
2024/03/23 09:19:29;;;;;;;;;;;;;;;12.75;40.49;94515.78;4168246;28;19988;-69
2024/03/23 09:21:31;;;;;;;;;;;;;;;12.88;39.81;94513.41;4173263;28;19921;-69
2024/03/23 09:23:31;;;;;;;;;;;;;;;12.85;40.01;94502.41;4175609;28;19924;-66
2024/03/23 09:25:32;;;;;;;;;;;;;;;13.09;39.83;94499.53;4166914;28;20427;-69
2024/03/23 09:27:32;;;;;;;;;;;;;;;13.26;39.73;94499.38;4156039;28;19925;-68
2024/03/23 09:29:33;;;;;;;;;;;;;;;13.26;38.69;94499.38;4175066;28;20305;-70
2024/03/23 09:31:34;;;;;;;;;;;;;;;13.39;38.97;94504.88;4171514;28;19921;-68
2024/03/23 09:33:37;;;;;;;;;;;;;;;13.45;38.69;94496.25;4172052;28;19920;-69
2024/03/23 09:35:41;;;;;;;;;;;;;;;13.57;38.75;94495.78;4176905;28;19927;-69
2024/03/23 09:37:42;;;;;;;;;;;;;;;13.71;38.20;94487.06;4151342;28;19921;-68
2024/03/23 09:39:42;;;;;;;;;;;;;;;13.87;38.12;94481.63;4174388;28;19982;-68
2024/03/23 09:41:43;;;;;;;;;;;;;;;14.03;37.37;94477.13;4157151;28;19921;-68
2024/03/23 09:43:45;;;;;;;;;;;;;;;14.11;37.08;94483.09;4167641;28;19928;-69
2024/03/23 09:45:46;;;;;;;;;;;;;;;13.92;37.44;94479.22;4171635;28;19936;-68
2024/03/23 09:47:47;;;;;;;;;;;;;;;13.91;38.19;94472.31;4163136;28;20360;-70
2024/03/23 09:49:48;;;;;;;;;;;;;;;13.67;37.77;94462.91;4169078;28;19921;-72
2024/03/23 09:51:48;;;;;;;;;;;;;;;13.75;38.40;94459.38;4162819;28;19924;-72
2024/03/23 09:53:50;;;;;;;;;;;;;;;13.65;38.33;94456.22;4160084;28;20018;-70
2024/03/23 09:55:50;;;;;;;;;;;;;;;13.43;38.44;94458.78;4177620;28;19924;-70
2024/03/23 09:57:51;;;;;;;;;;;;;;;13.12;38.98;94461.56;4162681;28;19983;-72
2024/03/23 09:59:51;;;;;;;;;;;;;;;13.51;38.57;94455.25;4176871;28;19987;-71
2024/03/23 10:01:55;;;;;;;;;;;;;;;13.59;37.95;94449.03;4176269;28;19937;-72
2024/03/23 10:03:56;;;;;;;;;;;;;;;13.76;37.81;94442.56;4160384;28;19963;-71
2024/03/23 10:06:03;;;;;;;;;;;;;;;13.73;37.58;94446.41;4176419;28;19943;-70
2024/03/23 10:08:13;;;;;;;;;;;;;;;13.72;37.32;94441.31;4157970;28;19920;-71
2024/03/23 10:10:15;;;;;;;;;;;;;;;13.87;36.93;94439.47;4172330;28;19925;-72
2024/03/23 10:12:16;;;;;;;;;;;;;;;14.17;37.34;94425.38;4178100;28;19927;-71
2024/03/23 10:14:28;;;;;;;;;;;;;;;14.34;36.68;94424.94;4175281;28;19928;-70
2024/03/23 10:16:29;;;;;;;;;;;;;;;14.56;35.60;94427.59;4172831;28;20417;-69
2024/03/23 10:18:32;;;;;;;;;;;;;;;14.79;35.53;94414.19;4162767;28;19920;-68
2024/03/23 10:20:32;;;;;;;;;;;;;;;15.09;35.35;94417.44;4174878;28;20431;-69
2024/03/23 10:22:34;;;;;;;;;;;;;;;14.79;34.73;94416.81;4175217;28;19975;-69
2024/03/23 10:24:35;;;;;;;;;;;;;;;14.86;34.69;94411.59;4153864;28;19924;-70
2024/03/23 10:26:36;;;;;;;;;;;;;;;14.84;34.99;94406.53;4172865;28;19929;-67
2024/03/23 10:28:37;;;;;;;;;;;;;;;14.46;34.97;94412.09;4171354;28;19958;-69
2024/03/23 10:30:37;;;;;;;;;;;;;;;14.27;35.74;94407.44;4178601;28;19925;-71
2024/03/23 10:32:38;;;;;;;;;;;;;;;14.25;35.56;94405.00;4170343;28;19928;-69
2024/03/23 10:34:39;;;;;;;;;;;;;;;14.32;35.47;94394.50;4178018;28;20378;-69
2024/03/23 10:36:40;;;;;;;;;;;;;;;14.22;34.44;94394.00;4157247;28;20392;-70